Time;durP1;ratioP1;P1;durP2;ratioP2;P2;SDS_P1;SDS_P2;PMS_P1;PMS_P2;Temp;Humidity;BMP_temperature;BMP_pressure;BME280_temperature;BME280_humidity;BME280_pressure;Samples;Min_cycle;Max_cycle;Signal;HPM_P1;HPM_P2
2024/02/11 00:02:16;;;;;;;56.05;29.83;;;;;;;8.37;100.00;98784.63;5052197;28;20098;-78
2024/02/11 00:04:44;;;;;;;58.63;29.83;;;;;;;8.37;100.00;98771.38;5034192;28;20098;-78
2024/02/11 00:07:11;;;;;;;58.05;30.73;;;;;;;8.38;100.00;98770.38;5050858;28;20063;-78
2024/02/11 00:09:36;;;;;;;58.95;29.88;;;;;;;8.38;100.00;98773.03;5051680;28;20033;-78
2024/02/11 00:12:02;;;;;;;58.72;31.60;;;;;;;8.37;100.00;98770.56;5051899;28;20450;-78
2024/02/11 00:14:27;;;;;;;55.92;30.10;;;;;;;8.39;100.00;98773.84;5050479;28;20162;-78
2024/02/11 00:16:59;;;;;;;55.63;27.80;;;;;;;8.39;100.00;98773.84;5050818;28;20522;-78
2024/02/11 00:19:25;;;;;;;55.03;29.00;;;;;;;8.39;100.00;98765.91;5052019;28;20033;-78
2024/02/11 00:21:50;;;;;;;52.20;29.10;;;;;;;8.37;100.00;98759.97;5052104;28;20040;-78
2024/02/11 00:24:16;;;;;;;58.63;29.52;;;;;;;8.37;100.00;98765.25;5049918;28;20059;-79
2024/02/11 00:26:41;;;;;;;60.97;30.38;;;;;;;8.37;100.00;98759.97;5051045;28;20029;-78
2024/02/11 00:29:07;;;;;;;55.80;29.55;;;;;;;8.36;100.00;98758.31;5052073;28;20029;-78
2024/02/11 00:31:32;;;;;;;54.58;30.15;;;;;;;8.36;100.00;98760.94;5054187;28;20029;-78
2024/02/11 00:34:01;;;;;;;56.97;29.15;;;;;;;8.34;100.00;98761.13;5056134;28;20061;-78
2024/02/11 00:36:29;;;;;;;55.90;28.38;;;;;;;8.33;100.00;98762.16;5055776;28;20028;-79
2024/02/11 00:38:54;;;;;;;55.10;29.48;;;;;;;8.33;100.00;98766.59;5055704;28;20029;-78
2024/02/11 00:41:19;;;;;;;54.85;28.33;;;;;;;8.32;100.00;98755.19;5054094;28;20033;-79
2024/02/11 00:43:44;;;;;;;56.65;29.17;;;;;;;8.31;100.00;98756.19;5055245;28;20052;-78
2024/02/11 00:46:10;;;;;;;53.78;28.85;;;;;;;8.30;100.00;98760.66;5055521;28;20060;-78
2024/02/11 00:48:35;;;;;;;51.28;28.48;;;;;;;8.29;100.00;98761.66;5055596;28;20335;-78
2024/02/11 00:51:00;;;;;;;54.58;27.90;;;;;;;8.27;100.00;98757.53;5055673;28;20037;-78
2024/02/11 00:53:26;;;;;;;48.10;28.13;;;;;;;8.27;100.00;98760.16;5053773;28;20033;-79
2024/02/11 00:55:52;;;;;;;45.50;26.67;;;;;;;8.27;100.00;98754.88;5055567;28;20029;-79
2024/02/11 00:58:18;;;;;;;46.53;28.02;;;;;;;8.25;100.00;98760.34;5055304;28;20033;-78
2024/02/11 01:00:46;;;;;;;50.95;28.05;;;;;;;8.24;100.00;98760.53;5054860;28;20086;-78
2024/02/11 01:03:13;;;;;;;46.78;26.40;;;;;;;8.22;100.00;98762.53;5055038;28;20036;-79
2024/02/11 01:05:40;;;;;;;49.17;29.50;;;;;;;8.18;100.00;98756.78;5055645;28;20029;-79
2024/02/11 01:08:05;;;;;;;49.83;28.00;;;;;;;8.16;100.00;98758.75;5055513;28;20111;-78
2024/02/11 01:10:31;;;;;;;48.33;27.05;;;;;;;8.15;100.00;98764.22;5055276;28;20530;-78
2024/02/11 01:12:57;;;;;;;44.75;26.95;;;;;;;8.14;100.00;98766.06;5053727;28;20060;-77
2024/02/11 01:15:26;;;;;;;52.72;28.10;;;;;;;8.12;100.00;98763.59;5055500;28;20107;-79
2024/02/11 01:17:52;;;;;;;51.92;27.67;;;;;;;8.10;100.00;98770.88;5055057;28;20040;-78
2024/02/11 01:20:18;;;;;;;53.70;28.90;;;;;;;8.10;100.00;98767.41;5053883;28;20028;-78
2024/02/11 01:22:46;;;;;;;50.47;29.95;;;;;;;8.08;100.00;98764.91;5054149;28;20436;-79
2024/02/11 01:25:11;;;;;;;52.72;29.98;;;;;;;8.07;100.00;98768.56;5054801;28;20057;-79
2024/02/11 01:27:37;;;;;;;51.47;29.13;;;;;;;8.05;100.00;98765.28;5053353;28;20448;-78
2024/02/11 01:30:05;;;;;;;52.80;30.08;;;;;;;8.06;100.00;98768.72;5054869;28;20033;-78
2024/02/11 01:32:30;;;;;;;52.40;30.05;;;;;;;8.04;100.00;98768.09;5054691;28;20471;-78
2024/02/11 01:34:56;;;;;;;52.75;28.88;;;;;;;8.03;100.00;98777.88;5053762;28;20090;-80
2024/02/11 01:37:21;;;;;;;52.20;30.00;;;;;;;8.04;100.00;98773.41;5054982;28;20033;-77
2024/02/11 01:39:47;;;;;;;58.95;30.05;;;;;;;8.01;100.00;98782.50;5054863;28;20072;-78
2024/02/11 01:42:12;;;;;;;57.55;30.80;;;;;;;8.00;100.00;98780.88;5052960;28;20029;-78
2024/02/11 01:44:38;;;;;;;52.88;30.23;;;;;;;7.98;100.00;98774.91;5053256;28;20151;-80
2024/02/11 01:47:04;;;;;;;55.15;30.27;;;;;;;7.97;100.00;98777.72;5054283;28;20033;-77
2024/02/11 01:49:31;;;;;;;56.58;31.25;;;;;;;7.98;100.00;98782.03;5054416;28;20029;-78
2024/02/11 01:51:59;;;;;;;58.88;31.42;;;;;;;7.96;100.00;98779.56;5054089;28;20472;-78
2024/02/11 01:54:26;;;;;;;61.85;31.75;;;;;;;7.98;100.00;98782.03;5052943;28;20386;-79
2024/02/11 01:56:52;;;;;;;58.75;31.90;;;;;;;7.96;100.00;98774.25;5054252;28;20090;-78
2024/02/11 01:59:19;;;;;;;60.90;31.48;;;;;;;7.95;100.00;98778.72;5036627;28;20044;-78
2024/02/11 02:01:45;;;;;;;72.13;34.13;;;;;;;7.94;100.00;98773.59;5054186;28;20045;-78
2024/02/11 02:04:11;;;;;;;65.32;33.08;;;;;;;7.94;100.00;98769.13;5053921;28;20037;-79
2024/02/11 02:06:37;;;;;;;63.60;33.05;;;;;;;7.95;100.00;98775.25;5054338;28;20375;-78
2024/02/11 02:09:03;;;;;;;64.90;33.13;;;;;;;7.94;100.00;98773.59;5053880;28;20032;-79
2024/02/11 02:11:29;;;;;;;66.53;34.95;;;;;;;7.94;100.00;98765.66;5053830;28;20043;-82
2024/02/11 02:13:55;;;;;;;66.25;34.50;;;;;;;7.95;100.00;98777.91;5053967;28;20374;-79
2024/02/11 02:16:22;;;;;;;64.63;34.53;;;;;;;7.94;100.00;98770.94;5053804;28;20029;-78
2024/02/11 02:18:49;;;;;;;66.80;34.33;;;;;;;7.94;100.00;98768.28;5054548;28;20037;-79
2024/02/11 02:21:18;;;;;;;67.80;35.50;;;;;;;7.95;100.00;98776.06;5053366;28;20079;-78
2024/02/11 02:23:45;;;;;;;67.05;35.53;;;;;;;7.96;100.00;98771.63;5054050;28;20094;-78
2024/02/11 02:26:10;;;;;;;67.13;34.72;;;;;;;7.96;100.00;98771.63;5052490;28;20084;-78
2024/02/11 02:28:36;;;;;;;69.28;35.60;;;;;;;7.94;100.00;98763.00;5052633;28;20063;-78
2024/02/11 02:31:03;;;;;;;67.40;34.40;;;;;;;7.95;100.00;98767.31;5053623;28;20040;-78
2024/02/11 02:33:29;;;;;;;73.03;36.10;;;;;;;7.94;100.00;98765.66;5052389;28;20044;-78
2024/02/11 02:35:54;;;;;;;70.15;35.70;;;;;;;7.94;100.00;98761.19;5053944;28;20052;-77
2024/02/11 02:38:19;;;;;;;71.45;36.38;;;;;;;7.95;100.00;98759.34;5053107;28;20036;-78
2024/02/11 02:40:45;;;;;;;79.30;35.90;;;;;;;7.95;100.00;98754.88;5052121;28;20126;-78
2024/02/11 02:43:11;;;;;;;70.90;34.95;;;;;;;7.95;100.00;98759.34;5053381;28;20524;-78
2024/02/11 02:45:38;;;;;;;73.38;36.55;;;;;;;7.95;100.00;98754.06;5053668;28;20133;-78
2024/02/11 02:48:05;;;;;;;73.50;35.80;;;;;;;7.93;100.00;98750.78;5053040;28;20119;-78
2024/02/11 02:50:30;;;;;;;69.75;35.65;;;;;;;7.91;100.00;98753.59;5053374;28;20037;-78
2024/02/11 02:52:55;;;;;;;69.57;35.63;;;;;;;7.92;100.00;98755.22;5051561;28;20033;-78
2024/02/11 02:55:21;;;;;;;76.22;36.58;;;;;;;7.91;100.00;98753.59;5053021;28;20471;-78
2024/02/11 02:57:46;;;;;;;71.78;35.75;;;;;;;7.91;100.00;98750.09;5051501;28;20036;-78
2024/02/11 03:00:12;;;;;;;73.15;35.78;;;;;;;7.91;100.00;98750.09;5052694;28;20539;-78
2024/02/11 03:02:38;;;;;;;74.57;35.78;;;;;;;7.90;100.00;98751.13;5052587;28;20482;-79
2024/02/11 03:05:04;;;;;;;72.15;35.53;;;;;;;7.89;100.00;98757.41;5052797;28;20037;-78
2024/02/11 03:07:30;;;;;;;68.03;35.13;;;;;;;7.90;100.00;98753.78;5051772;28;20044;-78
2024/02/11 03:09:55;;;;;;;72.13;35.38;;;;;;;7.88;100.00;98755.75;5051408;28;20090;-78
2024/02/11 03:12:21;;;;;;;72.30;37.05;;;;;;;7.87;100.00;98754.13;5051369;28;20530;-78
2024/02/11 03:14:48;;;;;;;76.30;37.42;;;;;;;7.88;100.00;98755.75;5052332;28;20486;-79
2024/02/11 03:17:13;;;;;;;71.50;34.42;;;;;;;7.87;100.00;98762.06;5050937;28;20136;-78
2024/02/11 03:19:41;;;;;;;81.20;37.20;;;;;;;7.86;100.00;98763.88;5050894;28;20086;-79
2024/02/11 03:22:13;;;;;;;70.10;34.95;;;;;;;7.86;100.00;98757.75;5050938;28;20041;-77
2024/02/11 03:24:38;;;;;;;;;;;;;;;7.88;100.00;98763.69;5052822;28;20153;-82
2024/02/11 03:27:04;;;;;;;72.72;35.83;;;;;;;7.88;100.00;98758.41;5052487;28;19988;-78
2024/02/11 03:29:29;;;;;;;80.55;36.45;;;;;;;7.88;100.00;98761.03;5052807;28;20343;-78
2024/02/11 03:31:55;;;;;;;75.28;36.05;;;;;;;7.87;100.00;98754.94;5052412;28;20037;-78
2024/02/11 03:34:25;;;;;;;77.15;37.35;;;;;;;7.85;100.00;98756.94;5051014;28;20474;-78
2024/02/11 03:36:51;;;;;;;79.35;37.40;;;;;;;7.84;100.00;98751.81;5053042;28;20473;-78
2024/02/11 03:39:19;;;;;;;80.20;37.95;;;;;;;7.85;100.00;98750.78;5052292;28;20032;-78
2024/02/11 03:41:44;;;;;;;75.32;36.03;;;;;;;7.84;100.00;98746.53;5052233;28;20423;-78
2024/02/11 03:44:09;;;;;;;80.47;37.42;;;;;;;7.84;100.00;98759.75;5052240;28;20036;-79
2024/02/11 03:46:35;;;;;;;77.65;37.08;;;;;;;7.84;100.00;98754.47;5051909;28;20033;-79
2024/02/11 03:49:03;;;;;;;80.90;37.63;;;;;;;7.84;100.00;98760.56;5050702;28;20068;-79
2024/02/11 03:51:32;;;;;;;79.05;36.35;;;;;;;7.83;100.00;98756.25;5050748;28;20087;-78
2024/02/11 03:54:01;;;;;;;86.07;37.28;;;;;;;7.84;100.00;98757.94;5052013;28;20021;-78
2024/02/11 03:56:28;;;;;;;75.30;36.67;;;;;;;7.84;100.00;98760.56;5051807;28;20082;-78
2024/02/11 03:58:54;;;;;;;83.13;37.72;;;;;;;7.84;100.00;98763.22;5051985;28;20071;-78
2024/02/11 04:01:19;;;;;;;85.82;36.10;;;;;;;7.84;100.00;98765.06;5051964;28;20444;-78
2024/02/11 04:03:45;;;;;;;81.13;36.63;;;;;;;7.85;100.00;98774.63;5052018;28;20115;-78
2024/02/11 04:06:11;;;;;;;84.57;35.67;;;;;;;7.85;100.00;98771.97;5051399;28;20033;-78
2024/02/11 04:08:41;;;;;;;84.13;36.88;;;;;;;7.86;100.00;98771.00;5052477;28;20033;-78
2024/02/11 04:11:07;;;;;;;87.78;37.67;;;;;;;7.84;100.00;98762.41;5051917;28;20094;-78
2024/02/11 04:13:32;;;;;;;85.35;38.00;;;;;;;7.86;100.00;98768.34;5051582;28;20398;-78
2024/02/11 04:16:05;;;;;;;79.65;36.50;;;;;;;7.84;100.00;98765.88;5050266;28;20033;-78
2024/02/11 04:18:32;;;;;;;80.57;35.55;;;;;;;7.85;100.00;98764.03;5035175;28;20094;-78
2024/02/11 04:20:58;;;;;;;87.90;36.50;;;;;;;7.86;100.00;98757.75;5051661;28;20036;-78
2024/02/11 04:23:24;;;;;;;86.25;34.97;;;;;;;7.87;100.00;98765.53;5052247;28;20037;-78
2024/02/11 04:25:50;;;;;;;89.38;36.10;;;;;;;7.87;100.00;98759.41;5051131;28;20049;-79
2024/02/11 04:28:20;;;;;;;84.70;34.92;;;;;;;7.87;100.00;98762.88;5051728;28;20044;-78
2024/02/11 04:30:46;;;;;;;81.60;35.55;;;;;;;7.87;100.00;98762.88;5051788;28;20041;-78
2024/02/11 04:33:20;;;;;;;85.15;35.15;;;;;;;7.88;100.00;98759.25;5051629;28;20071;-78
2024/02/11 04:35:46;;;;;;;84.75;35.50;;;;;;;7.89;100.00;98758.22;5050934;28;20067;-77
2024/02/11 04:38:12;;;;;;;86.00;33.85;;;;;;;7.90;100.00;98759.06;5051409;28;20037;-78
2024/02/11 04:40:37;;;;;;;84.57;32.65;;;;;;;7.90;100.00;98764.38;5051692;28;20036;-79
2024/02/11 04:43:03;;;;;;;89.35;33.80;;;;;;;7.92;100.00;98767.66;5051488;28;20033;-77
2024/02/11 04:45:28;;;;;;;93.18;34.83;;;;;;;7.97;100.00;98778.53;5050157;28;20120;-77
2024/02/11 04:47:58;;;;;;;63.03;21.92;;;;;;;7.95;100.00;98772.59;5051729;28;20044;-78
2024/02/11 04:50:26;;;;;;;23.52;11.85;;;;;;;7.77;100.00;98776.31;5051547;28;20029;-77
2024/02/11 04:52:55;;;;;;;24.38;11.95;;;;;;;7.63;100.00;98779.69;5051451;28;20033;-80
2024/02/11 04:55:24;;;;;;;18.00;8.77;;;;;;;7.50;100.00;98785.50;5050027;28;20443;-79
2024/02/11 04:57:51;;;;;;;15.70;8.70;;;;;;;7.35;100.00;98787.19;5051351;28;20177;-78
2024/02/11 05:00:26;;;;;;;16.00;8.52;;;;;;;7.24;100.00;98785.72;5051834;28;20413;-79
2024/02/11 05:03:06;;;;;;;19.23;10.02;;;;;;;7.14;100.00;98793.84;5051829;28;20029;-85
2024/02/11 05:05:33;;;;;;;18.00;10.43;;;;;;;7.07;100.00;98798.94;5052203;28;20040;-79
2024/02/11 05:08:03;;;;;;;18.88;9.43;;;;;;;7.01;100.00;98793.50;5051691;28;20032;-79
2024/02/11 05:10:34;;;;;;;20.58;9.50;;;;;;;6.96;100.00;98801.94;5051991;28;20029;-78
2024/02/11 05:13:11;;;;;;;15.90;8.57;;;;;;;6.94;100.00;98803.94;5050329;28;20127;-79
2024/02/11 05:15:38;;;;;;;20.33;8.80;;;;;;;6.88;100.00;98810.72;5051324;28;20530;-78
2024/02/11 05:18:04;;;;;;;18.23;8.95;;;;;;;6.85;100.00;98805.75;5054667;28;20035;-78
2024/02/11 05:20:31;;;;;;;16.88;7.65;;;;;;;6.81;100.00;98817.63;5053980;28;20389;-78
2024/02/11 05:22:58;;;;;;;19.30;7.55;;;;;;;6.79;100.00;98816.13;5053785;28;20041;-79
2024/02/11 05:25:25;;;;;;;16.27;8.18;;;;;;;6.75;100.00;98810.38;5055100;28;20049;-79
2024/02/11 05:27:56;;;;;;;19.52;8.32;;;;;;;6.74;100.00;98821.09;5053839;28;20102;-79
2024/02/11 05:30:26;;;;;;;18.17;8.23;;;;;;;6.72;100.00;98826.56;5053785;28;20037;-78
2024/02/11 05:32:58;;;;;;;20.25;7.43;;;;;;;6.71;100.00;98825.72;5055134;28;20112;-79
2024/02/11 05:35:24;;;;;;;17.17;5.60;;;;;;;6.67;100.00;98827.03;5053835;28;20036;-79
2024/02/11 05:37:57;;;;;;;18.20;6.43;;;;;;;6.65;100.00;98826.38;5054711;28;20033;-78
2024/02/11 05:40:25;;;;;;;15.95;7.75;;;;;;;6.61;100.00;98832.13;5053395;28;20412;-78
2024/02/11 05:42:50;;;;;;;16.83;6.93;;;;;;;6.59;100.00;98834.94;5054133;28;20481;-78
2024/02/11 05:45:16;;;;;;;17.77;6.00;;;;;;;6.58;100.00;98835.91;5054130;28;20076;-79
2024/02/11 05:47:42;;;;;;;22.63;7.03;;;;;;;6.57;100.00;98838.72;5054401;28;20462;-78
2024/02/11 05:50:08;;;;;;;16.90;7.93;;;;;;;6.55;100.00;98840.72;5054607;28;20040;-78
2024/02/11 05:52:36;;;;;;;19.65;6.90;;;;;;;6.54;100.00;98842.53;5054413;28;20032;-78
2024/02/11 05:55:02;;;;;;;18.85;7.40;;;;;;;6.52;100.00;98850.63;5053923;28;20339;-78
2024/02/11 05:57:28;;;;;;;17.40;7.72;;;;;;;6.49;100.00;98848.31;5053902;28;20028;-77
2024/02/11 05:59:55;;;;;;;15.60;8.23;;;;;;;6.49;100.00;98847.47;5052703;28;20486;-77
2024/02/11 06:02:21;;;;;;;23.88;7.40;;;;;;;6.47;100.00;98844.19;5054091;28;20044;-78
2024/02/11 06:04:47;;;;;;;11.13;6.15;;;;;;;6.47;100.00;98846.81;5054413;28;20024;-78
2024/02/11 06:07:14;;;;;;;14.63;5.90;;;;;;;6.44;100.00;98847.13;5052922;28;20040;-77
2024/02/11 06:09:39;;;;;;;13.43;6.18;;;;;;;6.42;100.00;98849.09;5054019;28;20048;-77
2024/02/11 06:12:06;;;;;;;10.38;5.03;;;;;;;6.39;100.00;98846.78;5053795;28;20037;-78
2024/02/11 06:14:33;;;;;;;15.02;4.80;;;;;;;6.38;100.00;98853.88;5053011;28;20128;-77
2024/02/11 06:16:59;;;;;;;10.90;3.28;;;;;;;6.32;100.00;98860.63;5053439;28;20029;-78
2024/02/11 06:19:25;;;;;;;8.90;3.67;;;;;;;6.29;100.00;98852.22;5053478;28;20505;-77
2024/02/11 06:21:51;;;;;;;13.88;2.47;;;;;;;6.24;100.00;98859.78;5052387;28;20389;-77
2024/02/11 06:24:16;;;;;;;15.55;2.10;;;;;;;6.19;100.00;98865.53;5036563;28;20033;-78
2024/02/11 06:26:42;;;;;;;14.02;2.20;;;;;;;6.16;100.00;98868.50;5052683;28;20083;-76
2024/02/11 06:29:08;;;;;;;15.35;1.80;;;;;;;6.13;100.00;98868.81;5053040;28;20107;-77
2024/02/11 06:31:34;;;;;;;9.95;1.85;;;;;;;6.10;100.00;98869.13;5053741;28;20037;-77
2024/02/11 06:34:00;;;;;;;13.70;2.30;;;;;;;6.06;100.00;98875.72;5052734;28;20037;-78
2024/02/11 06:36:26;;;;;;;9.90;2.58;;;;;;;6.05;100.00;98874.91;5053708;28;20536;-77
2024/02/11 06:38:51;;;;;;;8.15;2.10;;;;;;;6.01;100.00;98873.53;5053783;28;20033;-77
2024/02/11 06:41:18;;;;;;;10.95;1.85;;;;;;;5.98;100.00;98879.13;5053319;28;20453;-77
2024/02/11 06:43:43;;;;;;;17.90;2.80;;;;;;;5.96;100.00;98895.09;5053366;28;20061;-77
2024/02/11 06:46:09;;;;;;;12.23;2.40;;;;;;;5.95;100.00;98887.34;5052265;28;20127;-77
2024/02/11 06:48:35;;;;;;;16.30;2.50;;;;;;;5.94;100.00;98893.59;5052313;28;20359;-77
2024/02/11 06:51:01;;;;;;;9.75;2.47;;;;;;;5.92;100.00;98899.03;5053777;28;20174;-77
2024/02/11 06:53:28;;;;;;;14.25;3.10;;;;;;;5.91;100.00;98893.91;5052230;28;20443;-77
2024/02/11 06:55:53;;;;;;;17.45;3.25;;;;;;;5.90;100.00;98897.56;5052660;28;20417;-77
2024/02/11 06:58:19;;;;;;;17.73;2.78;;;;;;;5.90;100.00;98910.75;5053746;28;20025;-78
2024/02/11 07:00:45;;;;;;;8.82;2.67;;;;;;;5.89;100.00;98917.00;5053145;28;20044;-78
2024/02/11 07:03:11;;;;;;;11.57;2.65;;;;;;;5.88;100.00;98924.13;5051727;28;20094;-79
2024/02/11 07:05:38;;;;;;;14.70;3.65;;;;;;;5.88;100.00;98918.84;5053441;28;20139;-77
2024/02/11 07:08:06;;;;;;;12.07;2.70;;;;;;;5.90;100.00;98931.88;5053232;28;20036;-77
2024/02/11 07:10:32;;;;;;;14.55;3.03;;;;;;;5.87;100.00;98930.38;5052495;28;20032;-77
2024/02/11 07:12:58;;;;;;;17.27;3.83;;;;;;;5.90;100.00;98939.78;5053270;28;20029;-78
2024/02/11 07:15:23;;;;;;;12.30;2.90;;;;;;;5.89;100.00;98941.59;5051952;28;20033;-79
2024/02/11 07:17:49;;;;;;;15.45;3.53;;;;;;;5.90;100.00;98947.72;5052994;28;20109;-78
2024/02/11 07:20:15;;;;;;;17.15;4.50;;;;;;;5.92;100.00;98957.13;5053158;28;20048;-80
2024/02/11 07:22:42;;;;;;;21.00;5.20;;;;;;;5.93;100.00;98963.25;5051639;28;20459;-80
2024/02/11 07:25:08;;;;;;;21.65;6.88;;;;;;;5.93;100.00;98960.59;5052570;28;20044;-80
2024/02/11 07:27:34;;;;;;;21.90;7.55;;;;;;;5.94;100.00;98965.72;5052693;28;20067;-80
2024/02/11 07:30:00;;;;;;;24.13;7.72;;;;;;;5.95;100.00;98963.91;5052377;28;20048;-78
2024/02/11 07:32:26;;;;;;;28.25;9.63;;;;;;;5.96;100.00;98969.03;5052879;28;20033;-79
2024/02/11 07:34:51;;;;;;;28.85;9.50;;;;;;;5.97;100.00;98968.09;5052425;28;20036;-78
2024/02/11 07:37:17;;;;;;;29.20;10.02;;;;;;;6.00;100.00;98972.19;5050973;28;20596;-79
2024/02/11 07:39:43;;;;;;;31.63;11.40;;;;;;;6.00;100.00;98972.19;5051350;28;20201;-78
2024/02/11 07:42:08;;;;;;;33.75;12.65;;;;;;;6.02;100.00;98972.03;5052553;28;20075;-78
2024/02/11 07:44:35;;;;;;;31.17;13.50;;;;;;;6.04;100.00;98976.19;5034434;28;20075;-78
2024/02/11 07:47:02;;;;;;;36.97;13.43;;;;;;;6.07;100.00;98978.53;5052823;28;20436;-78
2024/02/11 07:49:28;;;;;;;36.22;13.35;;;;;;;6.09;100.00;98981.00;5052576;28;20035;-78
2024/02/11 07:51:55;;;;;;;39.55;14.35;;;;;;;6.13;100.00;98990.28;5051605;28;20041;-78
2024/02/11 07:54:23;;;;;;;37.13;14.38;;;;;;;6.17;100.00;98983.72;5052240;28;20029;-76
2024/02/11 07:56:52;;;;;;;48.15;14.57;;;;;;;6.18;100.00;98985.38;5052315;28;20033;-77
2024/02/11 07:59:18;;;;;;;38.38;14.95;;;;;;;6.21;100.00;98994.78;5052638;28;20064;-76
2024/02/11 08:01:44;;;;;;;43.05;14.55;;;;;;;6.19;100.00;98987.00;5052980;28;20561;-77
2024/02/11 08:04:10;;;;;;;38.55;12.95;;;;;;;6.20;100.00;98985.22;5052024;28;20025;-77
2024/02/11 08:06:35;;;;;;;35.92;12.88;;;;;;;6.24;100.00;98997.09;5052540;28;20079;-79
2024/02/11 08:09:02;;;;;;;38.38;13.07;;;;;;;6.20;100.00;98985.22;5051024;28;20033;-78
2024/02/11 08:11:30;;;;;;;37.70;12.63;;;;;;;6.22;100.00;98997.25;5051617;28;20035;-77
2024/02/11 08:13:55;;;;;;;32.90;12.68;;;;;;;6.24;100.00;98997.97;5051812;28;20082;-77
2024/02/11 08:16:22;;;;;;;32.88;12.45;;;;;;;6.26;100.00;99003.91;5051529;28;20037;-78
2024/02/11 08:18:48;;;;;;;38.67;12.02;;;;;;;6.29;100.00;99003.59;5051728;28;20033;-78
2024/02/11 08:21:13;;;;;;;34.97;12.45;;;;;;;6.33;100.00;99006.75;5051682;28;20056;-78
2024/02/11 08:23:39;;;;;;;37.15;12.68;;;;;;;6.35;100.00;99005.59;5051976;28;20037;-78
2024/02/11 08:26:06;;;;;;;30.30;11.52;;;;;;;6.38;100.00;99003.66;5049874;28;20061;-78
2024/02/11 08:28:32;;;;;;;33.40;11.80;;;;;;;6.44;100.00;99016.22;5051684;28;20055;-79
2024/02/11 08:30:57;;;;;;;26.33;10.75;;;;;;;6.50;100.00;99013.75;5051317;28;20580;-80
2024/02/11 08:33:22;;;;;;;28.20;10.98;;;;;;;6.59;100.00;99019.09;5050919;28;20033;-79
2024/02/11 08:35:48;;;;;;;27.95;11.18;;;;;;;6.66;100.00;99020.94;5052191;28;20359;-82
2024/02/11 08:38:14;;;;;;;31.60;12.43;;;;;;;6.74;100.00;99028.09;5051917;28;20087;-77
2024/02/11 08:40:39;;;;;;;29.42;12.43;;;;;;;6.78;100.00;99026.78;5052398;28;20028;-78
2024/02/11 08:43:07;;;;;;;27.05;12.18;;;;;;;6.91;100.00;99025.50;5052529;28;20057;-77
2024/02/11 08:45:33;;;;;;;34.92;14.07;;;;;;;6.97;100.00;99028.34;5051918;28;20414;-76
2024/02/11 08:47:58;;;;;;;31.73;12.73;;;;;;;6.99;100.00;99036.13;5052212;28;20041;-79
2024/02/11 08:50:25;;;;;;;27.15;11.85;;;;;;;7.00;100.00;99043.06;5052543;28;20323;-77
2024/02/11 08:52:51;;;;;;;30.48;11.77;;;;;;;7.02;100.00;99041.91;5055839;28;20446;-78
2024/02/11 08:55:17;;;;;;;25.13;11.40;;;;;;;7.05;100.00;99044.22;5056060;28;20025;-77
2024/02/11 08:57:45;;;;;;;30.00;11.25;;;;;;;7.09;100.00;99043.91;5054920;28;20033;-78
2024/02/11 09:00:14;;;;;;;21.88;9.80;;;;;;;7.13;100.00;99050.53;5055599;28;20043;-80
2024/02/11 09:02:42;;;;;;;26.30;10.27;;;;;;;7.14;100.00;99060.16;5055681;28;20106;-78
2024/02/11 09:05:10;;;;;;;24.05;9.48;;;;;;;7.12;100.00;99060.31;5056109;28;20025;-78
2024/02/11 09:07:39;;;;;;;26.88;11.00;;;;;;;7.17;100.00;99055.34;5055660;28;20029;-80
2024/02/11 09:10:05;;;;;;;34.33;9.90;;;;;;;7.21;100.00;99059.34;5055616;28;20475;-76
2024/02/11 09:12:31;;;;;;;32.22;7.88;;;;;;;7.26;100.00;99060.69;5055669;28;20025;-77
2024/02/11 09:15:04;;;;;;;22.35;8.55;;;;;;;7.25;100.00;99054.53;5055822;28;20055;-77
2024/02/11 09:17:32;;;;;;;19.25;7.78;;;;;;;7.27;100.00;99054.38;5056110;28;20025;-78
2024/02/11 09:19:58;;;;;;;22.23;7.50;;;;;;;7.25;100.00;99054.53;5055777;28;20033;-78
2024/02/11 09:22:24;;;;;;;18.88;7.57;;;;;;;7.28;100.00;99056.03;5055218;28;20033;-80
2024/02/11 09:24:50;;;;;;;19.88;7.28;;;;;;;7.30;100.00;99062.84;5053588;28;20028;-78
2024/02/11 09:27:16;;;;;;;19.85;7.28;;;;;;;7.26;100.00;99058.03;5055896;28;20068;-78
2024/02/11 09:29:41;;;;;;;20.45;7.68;;;;;;;7.24;100.00;99068.78;5055282;28;20120;-78
2024/02/11 09:32:08;;;;;;;19.70;7.97;;;;;;;7.27;100.00;99063.16;5055274;28;20500;-79
2024/02/11 09:34:34;;;;;;;22.15;9.63;;;;;;;7.26;100.00;99058.84;5055133;28;20029;-78
2024/02/11 09:36:59;;;;;;;22.10;10.20;;;;;;;7.27;100.00;99072.91;5055343;28;20036;-75
2024/02/11 09:39:24;;;;;;;21.48;10.98;;;;;;;7.33;100.00;99069.59;5054951;28;20033;-78
2024/02/11 09:41:50;;;;;;;25.98;11.98;;;;;;;7.40;100.00;99081.22;5054797;28;20033;-79
2024/02/11 09:44:18;;;;;;;31.27;13.88;;;;;;;7.44;100.00;99079.91;5055004;28;20406;-78
2024/02/11 09:46:45;;;;;;;25.77;13.52;;;;;;;7.58;100.00;99089.88;5054890;28;20419;-77
2024/02/11 09:49:15;;;;;;;30.30;13.25;;;;;;;7.66;100.00;99094.34;5054910;28;20053;-76
2024/02/11 09:51:41;;;;;;;30.25;14.07;;;;;;;7.81;100.00;99096.31;5054749;28;20039;-77
2024/02/11 09:54:07;;;;;;;22.92;12.82;;;;;;;7.77;100.00;99094.00;5054006;28;20029;-76
2024/02/11 09:56:32;;;;;;;27.55;12.75;;;;;;;7.81;100.00;99094.53;5055030;28;20040;-77
2024/02/11 09:58:58;;;;;;;26.17;14.05;;;;;;;7.81;100.00;99097.19;5054649;28;20412;-77
2024/02/11 10:01:23;;;;;;;29.55;14.10;;;;;;;7.93;100.00;99090.56;5054916;28;20029;-77
2024/02/11 10:03:57;;;;;;;26.90;13.18;;;;;;;8.07;100.00;99098.84;5053515;28;20263;-77
2024/02/11 10:06:43;;;;;;;22.20;11.98;;;;;;;8.12;100.00;99104.47;5055050;28;20119;-80
2024/02/11 10:09:12;;;;;;;29.92;13.35;;;;;;;8.09;100.00;99108.28;5056860;28;20083;-79
2024/02/11 10:11:40;;;;;;;22.48;12.18;;;;;;;8.16;100.00;99107.63;5058614;28;20116;-76
2024/02/11 10:14:13;;;;;;;24.23;12.45;;;;;;;8.17;100.00;99106.63;5059436;28;20025;-82
2024/02/11 10:16:42;;;;;;;30.35;13.38;;;;;;;8.17;100.00;99109.28;5059162;28;20036;-78
2024/02/11 10:19:09;;;;;;;25.27;12.50;;;;;;;8.06;100.00;99111.28;5059257;28;20029;-77
2024/02/11 10:21:35;;;;;;;28.52;12.80;;;;;;;8.12;100.00;99113.25;5057690;28;20029;-80
2024/02/11 10:24:03;;;;;;;28.05;12.68;;;;;;;8.19;100.00;99113.41;5055651;28;20037;-79
2024/02/11 10:26:31;;;;;;;24.58;12.93;;;;;;;8.33;100.00;99119.03;5056469;28;20133;-80
2024/02/11 10:29:04;;;;;;;28.27;13.25;;;;;;;8.46;100.00;99119.38;5057001;28;20099;-80
2024/02/11 10:31:29;;;;;;;30.40;12.88;;;;;;;8.66;100.00;99119.88;5054448;28;20077;-78
2024/02/11 10:33:58;;;;;;;27.17;12.90;;;;;;;9.02;100.00;99113.28;5053087;28;20068;-78
2024/02/11 10:36:27;;;;;;;24.48;12.40;;;;;;;9.33;100.00;99121.28;5054796;28;20087;-79
2024/02/11 10:38:56;;;;;;;23.25;11.90;;;;;;;9.56;100.00;99125.84;5053924;28;20037;-80
2024/02/11 10:41:26;;;;;;;26.02;10.82;;;;;;;9.55;100.00;99126.84;5054371;28;20044;-79
2024/02/11 10:43:52;;;;;;;28.98;11.75;;;;;;;9.59;100.00;99121.00;5054435;28;20090;-78
2024/02/11 10:46:22;;;;;;;24.38;11.60;;;;;;;9.58;100.00;99123.84;5052867;28;20498;-77
2024/02/11 10:48:48;;;;;;;23.98;11.48;;;;;;;9.49;100.00;99131.00;5054420;28;20128;-79
2024/02/11 10:51:23;;;;;;;26.20;11.75;;;;;;;9.44;100.00;99122.75;5054168;28;20075;-79
2024/02/11 10:53:56;;;;;;;28.23;12.55;;;;;;;9.50;100.00;99141.47;5052671;28;20035;-77
2024/02/11 10:56:21;;;;;;;18.75;11.85;;;;;;;9.50;100.00;99128.19;5053970;28;20040;-76
2024/02/11 10:59:08;;;;;;;21.48;11.73;;;;;;;9.55;100.00;99132.16;5036034;28;20128;-77
2024/02/11 11:01:38;;;;;;;25.85;13.30;;;;;;;9.60;100.00;99129.78;5053805;28;20033;-82
2024/02/11 11:04:05;;;;;;;25.73;12.20;;;;;;;9.69;100.00;99136.72;5054000;28;20025;-77
2024/02/11 11:06:33;;;;;;;27.08;11.80;;;;;;;9.62;100.00;99130.47;5054027;28;20033;-77
2024/02/11 11:09:00;;;;;;;20.52;11.30;;;;;;;9.53;100.00;99132.31;5054309;28;20132;-76
2024/02/11 11:11:29;;;;;;;21.60;11.05;;;;;;;9.48;100.00;99132.00;5052504;28;20037;-76
2024/02/11 11:13:56;;;;;;;22.23;11.88;;;;;;;9.48;100.00;99132.84;5053209;28;20032;-77
2024/02/11 11:16:30;;;;;;;23.75;11.73;;;;;;;9.39;100.00;99133.06;5052236;28;20041;-77
2024/02/11 11:19:00;;;;;;;22.88;12.57;;;;;;;9.39;100.00;99133.91;5053363;28;20029;-77